sensor_id;sensor_type;location;lat;lon;timestamp;P1;durP1;ratioP1;P2;durP2;ratioP2
58308;SDS011;44117;57.142;24.826;2022-10-22T00:00:15;6.47;;;3.85;;
58308;SDS011;44117;57.142;24.826;2022-10-22T00:02:43;6.57;;;3.80;;
58308;SDS011;44117;57.142;24.826;2022-10-22T00:05:10;6.80;;;4.00;;
58308;SDS011;44117;57.142;24.826;2022-10-22T00:07:38;5.53;;;4.28;;
58308;SDS011;44117;57.142;24.826;2022-10-22T00:10:05;5.50;;;3.85;;
58308;SDS011;44117;57.142;24.826;2022-10-22T00:12:34;8.52;;;4.10;;
58308;SDS011;44117;57.142;24.826;2022-10-22T00:15:02;7.70;;;4.63;;
58308;SDS011;44117;57.142;24.826;2022-10-22T00:17:31;7.07;;;4.25;;
58308;SDS011;44117;57.142;24.826;2022-10-22T00:19:58;9.00;;;4.90;;
58308;SDS011;44117;57.142;24.826;2022-10-22T00:22:25;9.65;;;4.30;;
58308;SDS011;44117;57.142;24.826;2022-10-22T00:24:52;7.45;;;4.65;;
58308;SDS011;44117;57.142;24.826;2022-10-22T00:27:19;6.05;;;4.38;;
58308;SDS011;44117;57.142;24.826;2022-10-22T00:29:47;6.80;;;4.40;;
58308;SDS011;44117;57.142;24.826;2022-10-22T00:32:14;6.35;;;4.35;;
58308;SDS011;44117;57.142;24.826;2022-10-22T00:34:42;6.80;;;4.20;;
58308;SDS011;44117;57.142;24.826;2022-10-22T00:37:09;13.98;;;4.30;;
58308;SDS011;44117;57.142;24.826;2022-10-22T00:39:36;6.93;;;4.20;;
58308;SDS011;44117;57.142;24.826;2022-10-22T00:42:03;8.80;;;3.83;;
58308;SDS011;44117;57.142;24.826;2022-10-22T00:47:30;4.35;;;3.50;;
58308;SDS011;44117;57.142;24.826;2022-10-22T00:50:04;8.40;;;4.13;;
58308;SDS011;44117;57.142;24.826;2022-10-22T00:52:34;5.60;;;4.00;;
58308;SDS011;44117;57.142;24.826;2022-10-22T00:55:02;9.48;;;4.72;;
58308;SDS011;44117;57.142;24.826;2022-10-22T00:57:30;7.68;;;4.43;;
58308;SDS011;44117;57.142;24.826;2022-10-22T00:59:59;6.13;;;3.88;;
58308;SDS011;44117;57.142;24.826;2022-10-22T01:02:26;7.40;;;4.65;;
58308;SDS011;44117;57.142;24.826;2022-10-22T01:04:53;8.23;;;4.35;;
58308;SDS011;44117;57.142;24.826;2022-10-22T01:07:21;7.85;;;4.70;;
58308;SDS011;44117;57.142;24.826;2022-10-22T01:18:23;7.93;;;5.03;;
58308;SDS011;44117;57.142;24.826;2022-10-22T01:21:11;9.13;;;4.97;;
58308;SDS011;44117;57.142;24.826;2022-10-22T01:30:03;9.30;;;4.80;;
58308;SDS011;44117;57.142;24.826;2022-10-22T01:32:36;7.50;;;4.80;;
58308;SDS011;44117;57.142;24.826;2022-10-22T01:35:14;6.80;;;4.60;;
58308;SDS011;44117;57.142;24.826;2022-10-22T01:37:46;8.57;;;5.18;;
58308;SDS011;44117;57.142;24.826;2022-10-22T01:40:16;9.55;;;4.43;;
58308;SDS011;44117;57.142;24.826;2022-10-22T01:42:55;6.75;;;4.45;;
58308;SDS011;44117;57.142;24.826;2022-10-22T01:45:24;7.35;;;4.70;;
58308;SDS011;44117;57.142;24.826;2022-10-22T01:48:03;10.35;;;5.75;;
58308;SDS011;44117;57.142;24.826;2022-10-22T02:04:26;6.97;;;4.75;;
58308;SDS011;44117;57.142;24.826;2022-10-22T02:07:00;7.30;;;5.05;;
58308;SDS011;44117;57.142;24.826;2022-10-22T02:09:31;9.18;;;4.78;;
58308;SDS011;44117;57.142;24.826;2022-10-22T02:12:01;9.07;;;4.60;;
58308;SDS011;44117;57.142;24.826;2022-10-22T02:14:36;8.23;;;4.72;;
58308;SDS011;44117;57.142;24.826;2022-10-22T02:17:07;7.20;;;4.57;;
58308;SDS011;44117;57.142;24.826;2022-10-22T02:19:42;6.53;;;4.78;;
58308;SDS011;44117;57.142;24.826;2022-10-22T02:22:21;6.68;;;4.43;;
58308;SDS011;44117;57.142;24.826;2022-10-22T02:24:49;5.57;;;4.20;;
58308;SDS011;44117;57.142;24.826;2022-10-22T02:32:35;7.75;;;4.70;;
58308;SDS011;44117;57.142;24.826;2022-10-22T02:35:07;8.60;;;4.55;;
58308;SDS011;44117;57.142;24.826;2022-10-22T02:37:38;8.05;;;4.60;;
58308;SDS011;44117;57.142;24.826;2022-10-22T02:40:06;7.25;;;4.60;;
58308;SDS011;44117;57.142;24.826;2022-10-22T02:42:34;8.50;;;4.57;;
58308;SDS011;44117;57.142;24.826;2022-10-22T02:45:03;6.80;;;4.43;;
58308;SDS011;44117;57.142;24.826;2022-10-22T02:47:31;7.93;;;4.55;;
58308;SDS011;44117;57.142;24.826;2022-10-22T02:49:58;7.00;;;5.20;;
58308;SDS011;44117;57.142;24.826;2022-10-22T02:52:26;7.28;;;4.50;;
58308;SDS011;44117;57.142;24.826;2022-10-22T02:54:53;6.43;;;4.20;;
58308;SDS011;44117;57.142;24.826;2022-10-22T02:57:20;7.57;;;4.68;;
58308;SDS011;44117;57.142;24.826;2022-10-22T02:59:48;11.48;;;6.35;;
58308;SDS011;44117;57.142;24.826;2022-10-22T03:02:15;6.97;;;4.72;;
58308;SDS011;44117;57.142;24.826;2022-10-22T03:04:42;10.43;;;6.65;;
58308;SDS011;44117;57.142;24.826;2022-10-22T03:07:10;21.55;;;11.77;;
58308;SDS011;44117;57.142;24.826;2022-10-22T03:09:37;30.73;;;14.30;;
58308;SDS011;44117;57.142;24.826;2022-10-22T03:12:04;41.92;;;19.27;;
58308;SDS011;44117;57.142;24.826;2022-10-22T03:14:31;33.55;;;15.50;;
58308;SDS011;44117;57.142;24.826;2022-10-22T03:16:59;46.20;;;20.98;;
58308;SDS011;44117;57.142;24.826;2022-10-22T03:19:26;69.88;;;30.10;;
58308;SDS011;44117;57.142;24.826;2022-10-22T03:21:54;41.35;;;18.17;;
58308;SDS011;44117;57.142;24.826;2022-10-22T03:24:27;10.63;;;6.35;;
58308;SDS011;44117;57.142;24.826;2022-10-22T03:26:59;17.77;;;9.48;;
58308;SDS011;44117;57.142;24.826;2022-10-22T03:29:26;10.80;;;6.10;;
58308;SDS011;44117;57.142;24.826;2022-10-22T03:31:54;11.13;;;6.30;;
58308;SDS011;44117;57.142;24.826;2022-10-22T03:34:21;9.65;;;6.40;;
58308;SDS011;44117;57.142;24.826;2022-10-22T03:36:48;11.73;;;6.03;;
58308;SDS011;44117;57.142;24.826;2022-10-22T03:39:17;12.55;;;7.70;;
58308;SDS011;44117;57.142;24.826;2022-10-22T03:41:46;14.88;;;10.70;;
58308;SDS011;44117;57.142;24.826;2022-10-22T03:44:15;11.75;;;8.73;;
58308;SDS011;44117;57.142;24.826;2022-10-22T03:46:43;16.65;;;9.10;;
58308;SDS011;44117;57.142;24.826;2022-10-22T03:49:11;35.95;;;14.38;;
58308;SDS011;44117;57.142;24.826;2022-10-22T03:51:38;78.20;;;28.25;;
58308;SDS011;44117;57.142;24.826;2022-10-22T03:54:05;67.18;;;23.40;;
58308;SDS011;44117;57.142;24.826;2022-10-22T03:56:33;18.58;;;8.57;;
58308;SDS011;44117;57.142;24.826;2022-10-22T03:59:00;9.35;;;6.03;;
58308;SDS011;44117;57.142;24.826;2022-10-22T04:01:28;9.93;;;5.28;;
58308;SDS011;44117;57.142;24.826;2022-10-22T04:03:56;8.52;;;5.00;;
58308;SDS011;44117;57.142;24.826;2022-10-22T04:06:24;11.93;;;7.07;;
58308;SDS011;44117;57.142;24.826;2022-10-22T04:08:51;12.52;;;8.35;;
58308;SDS011;44117;57.142;24.826;2022-10-22T04:11:18;12.75;;;6.78;;
58308;SDS011;44117;57.142;24.826;2022-10-22T04:13:46;10.45;;;6.07;;
58308;SDS011;44117;57.142;24.826;2022-10-22T04:16:17;10.85;;;6.05;;
58308;SDS011;44117;57.142;24.826;2022-10-22T04:18:47;11.10;;;6.22;;
58308;SDS011;44117;57.142;24.826;2022-10-22T04:21:16;9.55;;;5.65;;
58308;SDS011;44117;57.142;24.826;2022-10-22T04:23:48;6.97;;;5.10;;
58308;SDS011;44117;57.142;24.826;2022-10-22T04:26:17;9.20;;;5.40;;
58308;SDS011;44117;57.142;24.826;2022-10-22T04:28:45;7.70;;;4.82;;
58308;SDS011;44117;57.142;24.826;2022-10-22T04:31:14;7.95;;;4.95;;
58308;SDS011;44117;57.142;24.826;2022-10-22T04:33:42;11.73;;;5.18;;
58308;SDS011;44117;57.142;24.826;2022-10-22T04:36:14;9.02;;;5.43;;
58308;SDS011;44117;57.142;24.826;2022-10-22T04:38:43;11.82;;;5.28;;
58308;SDS011;44117;57.142;24.826;2022-10-22T04:41:13;9.20;;;5.22;;
58308;SDS011;44117;57.142;24.826;2022-10-22T04:43:42;9.48;;;5.22;;
58308;SDS011;44117;57.142;24.826;2022-10-22T04:46:11;8.82;;;5.45;;
58308;SDS011;44117;57.142;24.826;2022-10-22T04:48:39;9.80;;;6.20;;
58308;SDS011;44117;57.142;24.826;2022-10-22T04:51:09;10.00;;;6.00;;
58308;SDS011;44117;57.142;24.826;2022-10-22T04:53:38;15.82;;;8.35;;
58308;SDS011;44117;57.142;24.826;2022-10-22T04:56:12;12.85;;;6.63;;
58308;SDS011;44117;57.142;24.826;2022-10-22T04:58:46;13.02;;;7.30;;
58308;SDS011;44117;57.142;24.826;2022-10-22T05:01:19;12.40;;;6.38;;
58308;SDS011;44117;57.142;24.826;2022-10-22T05:03:49;8.73;;;5.88;;
58308;SDS011;44117;57.142;24.826;2022-10-22T05:06:17;7.68;;;5.68;;
58308;SDS011;44117;57.142;24.826;2022-10-22T05:08:46;8.23;;;5.55;;
58308;SDS011;44117;57.142;24.826;2022-10-22T05:11:22;9.05;;;5.68;;
58308;SDS011;44117;57.142;24.826;2022-10-22T05:13:57;10.50;;;5.95;;
58308;SDS011;44117;57.142;24.826;2022-10-22T05:16:25;10.80;;;5.70;;
58308;SDS011;44117;57.142;24.826;2022-10-22T05:18:54;11.65;;;7.03;;
58308;SDS011;44117;57.142;24.826;2022-10-22T05:21:24;12.98;;;5.68;;
58308;SDS011;44117;57.142;24.826;2022-10-22T05:23:52;10.55;;;6.25;;
58308;SDS011;44117;57.142;24.826;2022-10-22T05:26:20;12.38;;;7.55;;
58308;SDS011;44117;57.142;24.826;2022-10-22T05:28:49;9.70;;;5.45;;
58308;SDS011;44117;57.142;24.826;2022-10-22T05:31:17;24.20;;;10.50;;
58308;SDS011;44117;57.142;24.826;2022-10-22T05:33:45;12.65;;;6.90;;
58308;SDS011;44117;57.142;24.826;2022-10-22T05:36:14;10.30;;;6.38;;
58308;SDS011;44117;57.142;24.826;2022-10-22T05:38:43;12.30;;;6.82;;
58308;SDS011;44117;57.142;24.826;2022-10-22T05:41:14;13.63;;;7.63;;
58308;SDS011;44117;57.142;24.826;2022-10-22T05:43:46;10.38;;;6.32;;
58308;SDS011;44117;57.142;24.826;2022-10-22T05:46:17;10.25;;;5.93;;
58308;SDS011;44117;57.142;24.826;2022-10-22T05:48:52;24.42;;;10.63;;
58308;SDS011;44117;57.142;24.826;2022-10-22T05:51:24;12.70;;;7.97;;
58308;SDS011;44117;57.142;24.826;2022-10-22T05:53:54;11.48;;;5.95;;
58308;SDS011;44117;57.142;24.826;2022-10-22T05:56:23;9.93;;;5.50;;
58308;SDS011;44117;57.142;24.826;2022-10-22T05:58:52;10.20;;;6.00;;
58308;SDS011;44117;57.142;24.826;2022-10-22T06:01:20;12.32;;;6.72;;
58308;SDS011;44117;57.142;24.826;2022-10-22T06:03:51;13.27;;;6.75;;
58308;SDS011;44117;57.142;24.826;2022-10-22T06:11:55;16.70;;;11.20;;
58308;SDS011;44117;57.142;24.826;2022-10-22T06:14:22;13.68;;;9.27;;
58308;SDS011;44117;57.142;24.826;2022-10-22T06:16:51;11.90;;;8.25;;
58308;SDS011;44117;57.142;24.826;2022-10-22T06:19:19;34.80;;;21.10;;
58308;SDS011;44117;57.142;24.826;2022-10-22T06:21:47;14.18;;;9.25;;
58308;SDS011;44117;57.142;24.826;2022-10-22T06:24:14;47.67;;;25.88;;
58308;SDS011;44117;57.142;24.826;2022-10-22T06:26:42;34.65;;;21.33;;
58308;SDS011;44117;57.142;24.826;2022-10-22T06:29:09;20.10;;;13.18;;
58308;SDS011;44117;57.142;24.826;2022-10-22T06:31:36;34.28;;;23.88;;
58308;SDS011;44117;57.142;24.826;2022-10-22T06:34:08;18.05;;;11.70;;
58308;SDS011;44117;57.142;24.826;2022-10-22T06:36:37;23.98;;;8.65;;
58308;SDS011;44117;57.142;24.826;2022-10-22T06:39:10;22.90;;;14.02;;
58308;SDS011;44117;57.142;24.826;2022-10-22T06:41:39;15.35;;;9.82;;
58308;SDS011;44117;57.142;24.826;2022-10-22T06:44:06;49.80;;;28.38;;
58308;SDS011;44117;57.142;24.826;2022-10-22T06:46:41;39.05;;;21.65;;
58308;SDS011;44117;57.142;24.826;2022-10-22T06:49:10;25.30;;;14.50;;
58308;SDS011;44117;57.142;24.826;2022-10-22T06:51:39;29.15;;;14.00;;
58308;SDS011;44117;57.142;24.826;2022-10-22T06:54:07;27.15;;;14.63;;
58308;SDS011;44117;57.142;24.826;2022-10-22T06:56:34;40.90;;;18.50;;
58308;SDS011;44117;57.142;24.826;2022-10-22T06:59:02;59.22;;;29.23;;
58308;SDS011;44117;57.142;24.826;2022-10-22T07:01:30;61.15;;;29.88;;
58308;SDS011;44117;57.142;24.826;2022-10-22T07:03:59;25.23;;;13.18;;
58308;SDS011;44117;57.142;24.826;2022-10-22T07:06:27;66.07;;;29.25;;
58308;SDS011;44117;57.142;24.826;2022-10-22T07:08:56;60.00;;;35.20;;
58308;SDS011;44117;57.142;24.826;2022-10-22T07:11:25;45.97;;;24.05;;
58308;SDS011;44117;57.142;24.826;2022-10-22T07:13:58;31.30;;;17.27;;
58308;SDS011;44117;57.142;24.826;2022-10-22T07:16:25;14.38;;;7.18;;
58308;SDS011;44117;57.142;24.826;2022-10-22T07:18:57;24.85;;;15.18;;
58308;SDS011;44117;57.142;24.826;2022-10-22T07:21:28;10.77;;;5.45;;
58308;SDS011;44117;57.142;24.826;2022-10-22T07:23:57;18.40;;;10.07;;
58308;SDS011;44117;57.142;24.826;2022-10-22T07:26:24;12.60;;;6.45;;
58308;SDS011;44117;57.142;24.826;2022-10-22T07:28:56;15.27;;;8.55;;
58308;SDS011;44117;57.142;24.826;2022-10-22T07:31:25;47.65;;;24.35;;
58308;SDS011;44117;57.142;24.826;2022-10-22T07:33:52;31.05;;;17.25;;
58308;SDS011;44117;57.142;24.826;2022-10-22T07:36:19;15.85;;;9.40;;
58308;SDS011;44117;57.142;24.826;2022-10-22T07:38:47;7.82;;;4.25;;
58308;SDS011;44117;57.142;24.826;2022-10-22T07:41:18;9.95;;;6.50;;
58308;SDS011;44117;57.142;24.826;2022-10-22T07:43:46;7.57;;;5.13;;
58308;SDS011;44117;57.142;24.826;2022-10-22T07:46:13;15.50;;;9.20;;
58308;SDS011;44117;57.142;24.826;2022-10-22T07:48:40;12.80;;;10.43;;
58308;SDS011;44117;57.142;24.826;2022-10-22T07:51:07;17.63;;;15.27;;
58308;SDS011;44117;57.142;24.826;2022-10-22T07:53:35;10.45;;;8.45;;
58308;SDS011;44117;57.142;24.826;2022-10-22T07:56:02;13.52;;;7.35;;
58308;SDS011;44117;57.142;24.826;2022-10-22T07:58:29;7.57;;;4.63;;
58308;SDS011;44117;57.142;24.826;2022-10-22T08:00:57;10.50;;;4.55;;
58308;SDS011;44117;57.142;24.826;2022-10-22T08:05:58;11.90;;;7.55;;
58308;SDS011;44117;57.142;24.826;2022-10-22T08:08:26;20.13;;;8.95;;
58308;SDS011;44117;57.142;24.826;2022-10-22T08:10:56;11.20;;;5.95;;
58308;SDS011;44117;57.142;24.826;2022-10-22T08:13:26;9.82;;;6.13;;
58308;SDS011;44117;57.142;24.826;2022-10-22T08:15:59;10.63;;;6.03;;
58308;SDS011;44117;57.142;24.826;2022-10-22T08:18:27;14.55;;;8.00;;
58308;SDS011;44117;57.142;24.826;2022-10-22T08:20:55;10.45;;;6.10;;
58308;SDS011;44117;57.142;24.826;2022-10-22T08:23:22;18.98;;;11.10;;
58308;SDS011;44117;57.142;24.826;2022-10-22T08:25:54;11.32;;;3.72;;
58308;SDS011;44117;57.142;24.826;2022-10-22T08:28:22;11.73;;;6.32;;
58308;SDS011;44117;57.142;24.826;2022-10-22T08:30:49;13.15;;;7.70;;
58308;SDS011;44117;57.142;24.826;2022-10-22T08:33:16;10.63;;;5.80;;
58308;SDS011;44117;57.142;24.826;2022-10-22T08:35:48;10.60;;;6.72;;
58308;SDS011;44117;57.142;24.826;2022-10-22T08:38:16;18.42;;;10.13;;
58308;SDS011;44117;57.142;24.826;2022-10-22T08:40:46;6.43;;;3.50;;
58308;SDS011;44117;57.142;24.826;2022-10-22T08:51:15;18.55;;;9.85;;
58308;SDS011;44117;57.142;24.826;2022-10-22T08:53:48;9.53;;;5.67;;
58308;SDS011;44117;57.142;24.826;2022-10-22T08:56:21;9.60;;;6.13;;
58308;SDS011;44117;57.142;24.826;2022-10-22T09:01:30;21.55;;;12.40;;
58308;SDS011;44117;57.142;24.826;2022-10-22T09:04:11;7.80;;;5.07;;
58308;SDS011;44117;57.142;24.826;2022-10-22T09:06:44;11.73;;;6.47;;
58308;SDS011;44117;57.142;24.826;2022-10-22T09:09:17;16.45;;;8.75;;
58308;SDS011;44117;57.142;24.826;2022-10-22T09:11:46;12.05;;;7.03;;
58308;SDS011;44117;57.142;24.826;2022-10-22T09:14:17;10.23;;;4.90;;
58308;SDS011;44117;57.142;24.826;2022-10-22T09:27:51;13.20;;;10.73;;
58308;SDS011;44117;57.142;24.826;2022-10-22T09:30:27;9.57;;;7.40;;
58308;SDS011;44117;57.142;24.826;2022-10-22T09:35:34;15.02;;;9.32;;
58308;SDS011;44117;57.142;24.826;2022-10-22T09:38:11;9.52;;;7.00;;
58308;SDS011;44117;57.142;24.826;2022-10-22T09:40:48;11.00;;;7.90;;
58308;SDS011;44117;57.142;24.826;2022-10-22T09:43:17;29.02;;;18.55;;
58308;SDS011;44117;57.142;24.826;2022-10-22T09:45:45;15.38;;;11.43;;
58308;SDS011;44117;57.142;24.826;2022-10-22T09:50:44;10.80;;;6.95;;
58308;SDS011;44117;57.142;24.826;2022-10-22T09:55:48;9.88;;;6.22;;
58308;SDS011;44117;57.142;24.826;2022-10-22T09:58:18;9.95;;;5.93;;
58308;SDS011;44117;57.142;24.826;2022-10-22T10:00:52;16.35;;;12.88;;
58308;SDS011;44117;57.142;24.826;2022-10-22T10:03:23;17.85;;;12.60;;
58308;SDS011;44117;57.142;24.826;2022-10-22T10:05:54;14.00;;;10.90;;
58308;SDS011;44117;57.142;24.826;2022-10-22T10:08:30;14.07;;;10.60;;
58308;SDS011;44117;57.142;24.826;2022-10-22T10:10:58;11.65;;;9.05;;
58308;SDS011;44117;57.142;24.826;2022-10-22T10:27:29;6.75;;;5.13;;
58308;SDS011;44117;57.142;24.826;2022-10-22T10:30:18;7.95;;;4.70;;
58308;SDS011;44117;57.142;24.826;2022-10-22T10:38:41;6.03;;;4.22;;
58308;SDS011;44117;57.142;24.826;2022-10-22T10:49:38;7.18;;;3.58;;
58308;SDS011;44117;57.142;24.826;2022-10-22T11:00:06;7.07;;;5.05;;
58308;SDS011;44117;57.142;24.826;2022-10-22T11:02:45;7.38;;;5.43;;
58308;SDS011;44117;57.142;24.826;2022-10-22T11:05:36;7.10;;;5.22;;
58308;SDS011;44117;57.142;24.826;2022-10-22T11:08:21;7.93;;;5.10;;
58308;SDS011;44117;57.142;24.826;2022-10-22T11:13:55;11.48;;;8.18;;
58308;SDS011;44117;57.142;24.826;2022-10-22T11:16:43;11.30;;;6.53;;
58308;SDS011;44117;57.142;24.826;2022-10-22T11:22:47;17.48;;;11.07;;
58308;SDS011;44117;57.142;24.826;2022-10-22T11:25:41;20.17;;;14.10;;
58308;SDS011;44117;57.142;24.826;2022-10-22T11:28:24;35.85;;;22.15;;
58308;SDS011;44117;57.142;24.826;2022-10-22T11:31:02;12.98;;;7.93;;
58308;SDS011;44117;57.142;24.826;2022-10-22T11:34:16;14.43;;;10.95;;
58308;SDS011;44117;57.142;24.826;2022-10-22T11:36:59;12.27;;;9.80;;
58308;SDS011;44117;57.142;24.826;2022-10-22T11:39:29;11.40;;;8.88;;
58308;SDS011;44117;57.142;24.826;2022-10-22T11:42:02;21.77;;;16.48;;
58308;SDS011;44117;57.142;24.826;2022-10-22T11:44:44;25.80;;;18.67;;
58308;SDS011;44117;57.142;24.826;2022-10-22T11:47:24;32.38;;;19.95;;
58308;SDS011;44117;57.142;24.826;2022-10-22T11:49:58;19.70;;;12.90;;
58308;SDS011;44117;57.142;24.826;2022-10-22T12:03:38;7.95;;;4.85;;
58308;SDS011;44117;57.142;24.826;2022-10-22T12:08:51;39.95;;;23.30;;
58308;SDS011;44117;57.142;24.826;2022-10-22T12:11:25;52.17;;;31.23;;
58308;SDS011;44117;57.142;24.826;2022-10-22T12:16:58;9.57;;;4.45;;
58308;SDS011;44117;57.142;24.826;2022-10-22T12:19:29;21.63;;;12.57;;
58308;SDS011;44117;57.142;24.826;2022-10-22T12:24:48;17.58;;;12.85;;
58308;SDS011;44117;57.142;24.826;2022-10-22T12:27:21;29.48;;;20.83;;
58308;SDS011;44117;57.142;24.826;2022-10-22T12:29:55;11.35;;;8.65;;
58308;SDS011;44117;57.142;24.826;2022-10-22T12:32:34;17.63;;;13.55;;
58308;SDS011;44117;57.142;24.826;2022-10-22T12:35:04;10.10;;;7.10;;
58308;SDS011;44117;57.142;24.826;2022-10-22T12:37:34;15.80;;;11.65;;
58308;SDS011;44117;57.142;24.826;2022-10-22T12:40:15;17.92;;;12.45;;
58308;SDS011;44117;57.142;24.826;2022-10-22T12:42:47;17.83;;;12.07;;
58308;SDS011;44117;57.142;24.826;2022-10-22T12:45:20;26.15;;;18.05;;
58308;SDS011;44117;57.142;24.826;2022-10-22T12:47:49;20.80;;;15.32;;
58308;SDS011;44117;57.142;24.826;2022-10-22T12:50:22;19.75;;;14.13;;
58308;SDS011;44117;57.142;24.826;2022-10-22T12:53:12;15.52;;;12.32;;
58308;SDS011;44117;57.142;24.826;2022-10-22T12:55:46;16.83;;;14.98;;
58308;SDS011;44117;57.142;24.826;2022-10-22T12:58:17;21.60;;;15.27;;
58308;SDS011;44117;57.142;24.826;2022-10-22T13:00:46;9.10;;;5.57;;
58308;SDS011;44117;57.142;24.826;2022-10-22T13:03:23;7.60;;;5.32;;
58308;SDS011;44117;57.142;24.826;2022-10-22T13:11:33;11.95;;;7.07;;
58308;SDS011;44117;57.142;24.826;2022-10-22T13:14:26;6.88;;;3.75;;
58308;SDS011;44117;57.142;24.826;2022-10-22T13:19:48;11.57;;;7.00;;
58308;SDS011;44117;57.142;24.826;2022-10-22T13:27:43;10.73;;;7.85;;
58308;SDS011;44117;57.142;24.826;2022-10-22T13:30:18;13.63;;;9.15;;
58308;SDS011;44117;57.142;24.826;2022-10-22T13:33:04;13.90;;;11.57;;
58308;SDS011;44117;57.142;24.826;2022-10-22T13:35:33;17.85;;;16.05;;
58308;SDS011;44117;57.142;24.826;2022-10-22T13:38:05;14.40;;;12.68;;
58308;SDS011;44117;57.142;24.826;2022-10-22T13:40:41;8.48;;;6.90;;
58308;SDS011;44117;57.142;24.826;2022-10-22T13:43:08;9.57;;;8.40;;
58308;SDS011;44117;57.142;24.826;2022-10-22T13:45:36;11.02;;;9.25;;
58308;SDS011;44117;57.142;24.826;2022-10-22T13:48:03;10.85;;;8.27;;
58308;SDS011;44117;57.142;24.826;2022-10-22T13:50:30;10.38;;;7.38;;
58308;SDS011;44117;57.142;24.826;2022-10-22T13:52:58;9.07;;;6.55;;
58308;SDS011;44117;57.142;24.826;2022-10-22T13:55:28;12.40;;;8.43;;
58308;SDS011;44117;57.142;24.826;2022-10-22T13:57:57;17.45;;;14.40;;
58308;SDS011;44117;57.142;24.826;2022-10-22T14:00:32;19.65;;;15.45;;
58308;SDS011;44117;57.142;24.826;2022-10-22T14:03:00;19.13;;;15.05;;
58308;SDS011;44117;57.142;24.826;2022-10-22T14:05:27;16.70;;;14.13;;
58308;SDS011;44117;57.142;24.826;2022-10-22T14:07:55;21.40;;;17.48;;
58308;SDS011;44117;57.142;24.826;2022-10-22T14:10:25;53.00;;;36.13;;
58308;SDS011;44117;57.142;24.826;2022-10-22T14:12:53;70.85;;;55.95;;
58308;SDS011;44117;57.142;24.826;2022-10-22T14:15:21;75.63;;;51.35;;
58308;SDS011;44117;57.142;24.826;2022-10-22T14:17:53;46.70;;;32.05;;
58308;SDS011;44117;57.142;24.826;2022-10-22T14:20:33;33.42;;;20.67;;
58308;SDS011;44117;57.142;24.826;2022-10-22T14:23:14;25.30;;;16.08;;
58308;SDS011;44117;57.142;24.826;2022-10-22T14:25:44;24.90;;;19.13;;
58308;SDS011;44117;57.142;24.826;2022-10-22T14:28:12;18.55;;;12.23;;
58308;SDS011;44117;57.142;24.826;2022-10-22T14:30:39;20.63;;;15.43;;
58308;SDS011;44117;57.142;24.826;2022-10-22T14:33:17;14.23;;;9.02;;
58308;SDS011;44117;57.142;24.826;2022-10-22T14:35:46;11.82;;;7.88;;
58308;SDS011;44117;57.142;24.826;2022-10-22T14:38:14;18.42;;;8.93;;
58308;SDS011;44117;57.142;24.826;2022-10-22T14:40:42;15.02;;;7.03;;
58308;SDS011;44117;57.142;24.826;2022-10-22T14:43:11;9.65;;;4.88;;
58308;SDS011;44117;57.142;24.826;2022-10-22T14:45:50;10.93;;;6.38;;
58308;SDS011;44117;57.142;24.826;2022-10-22T14:48:18;10.80;;;7.85;;
58308;SDS011;44117;57.142;24.826;2022-10-22T14:50:46;21.40;;;15.75;;
58308;SDS011;44117;57.142;24.826;2022-10-22T14:53:13;20.98;;;14.80;;
58308;SDS011;44117;57.142;24.826;2022-10-22T14:55:42;12.85;;;8.80;;
58308;SDS011;44117;57.142;24.826;2022-10-22T14:58:12;11.80;;;8.00;;
58308;SDS011;44117;57.142;24.826;2022-10-22T15:00:41;12.30;;;6.65;;
58308;SDS011;44117;57.142;24.826;2022-10-22T15:03:09;9.85;;;5.85;;
58308;SDS011;44117;57.142;24.826;2022-10-22T15:05:40;26.55;;;15.75;;
58308;SDS011;44117;57.142;24.826;2022-10-22T15:08:11;26.85;;;14.52;;
58308;SDS011;44117;57.142;24.826;2022-10-22T15:10:41;29.30;;;16.35;;
58308;SDS011;44117;57.142;24.826;2022-10-22T15:13:08;22.38;;;11.88;;
58308;SDS011;44117;57.142;24.826;2022-10-22T15:15:38;19.65;;;9.63;;
58308;SDS011;44117;57.142;24.826;2022-10-22T15:18:06;33.50;;;20.17;;
58308;SDS011;44117;57.142;24.826;2022-10-22T15:20:34;39.03;;;22.67;;
58308;SDS011;44117;57.142;24.826;2022-10-22T15:23:01;35.45;;;21.13;;
58308;SDS011;44117;57.142;24.826;2022-10-22T15:25:28;32.78;;;21.33;;
58308;SDS011;44117;57.142;24.826;2022-10-22T15:27:56;21.17;;;14.45;;
58308;SDS011;44117;57.142;24.826;2022-10-22T15:30:30;14.85;;;10.15;;
58308;SDS011;44117;57.142;24.826;2022-10-22T15:32:57;11.07;;;7.00;;
58308;SDS011;44117;57.142;24.826;2022-10-22T15:35:26;9.25;;;6.05;;
58308;SDS011;44117;57.142;24.826;2022-10-22T15:37:54;10.88;;;4.57;;
58308;SDS011;44117;57.142;24.826;2022-10-22T15:40:21;7.43;;;4.13;;
58308;SDS011;44117;57.142;24.826;2022-10-22T15:42:48;8.20;;;4.15;;
58308;SDS011;44117;57.142;24.826;2022-10-22T15:45:15;9.35;;;5.28;;
58308;SDS011;44117;57.142;24.826;2022-10-22T15:47:46;11.38;;;5.75;;
58308;SDS011;44117;57.142;24.826;2022-10-22T15:50:14;15.73;;;7.22;;
58308;SDS011;44117;57.142;24.826;2022-10-22T15:52:42;18.10;;;8.68;;
58308;SDS011;44117;57.142;24.826;2022-10-22T15:55:09;16.38;;;8.68;;
58308;SDS011;44117;57.142;24.826;2022-10-22T15:57:41;13.32;;;7.43;;
58308;SDS011;44117;57.142;24.826;2022-10-22T16:00:11;11.50;;;6.00;;
58308;SDS011;44117;57.142;24.826;2022-10-22T16:02:38;11.23;;;6.90;;
58308;SDS011;44117;57.142;24.826;2022-10-22T16:05:06;11.90;;;5.88;;
58308;SDS011;44117;57.142;24.826;2022-10-22T16:07:33;11.23;;;6.13;;
58308;SDS011;44117;57.142;24.826;2022-10-22T16:10:01;9.80;;;5.55;;
58308;SDS011;44117;57.142;24.826;2022-10-22T16:12:28;12.23;;;5.20;;
58308;SDS011;44117;57.142;24.826;2022-10-22T16:14:55;15.13;;;6.95;;
58308;SDS011;44117;57.142;24.826;2022-10-22T16:17:22;14.55;;;7.38;;
58308;SDS011;44117;57.142;24.826;2022-10-22T16:19:50;16.45;;;9.15;;
58308;SDS011;44117;57.142;24.826;2022-10-22T16:22:17;17.65;;;8.90;;
58308;SDS011;44117;57.142;24.826;2022-10-22T16:24:44;15.05;;;8.23;;
58308;SDS011;44117;57.142;24.826;2022-10-22T16:27:12;14.40;;;7.30;;
58308;SDS011;44117;57.142;24.826;2022-10-22T16:29:39;16.67;;;8.32;;
58308;SDS011;44117;57.142;24.826;2022-10-22T16:32:07;19.02;;;8.30;;
58308;SDS011;44117;57.142;24.826;2022-10-22T16:34:34;17.83;;;7.68;;
58308;SDS011;44117;57.142;24.826;2022-10-22T16:37:01;16.52;;;8.43;;
58308;SDS011;44117;57.142;24.826;2022-10-22T16:42:03;17.33;;;7.60;;
58308;SDS011;44117;57.142;24.826;2022-10-22T16:44:30;14.15;;;6.95;;
58308;SDS011;44117;57.142;24.826;2022-10-22T16:46:57;14.55;;;6.80;;
58308;SDS011;44117;57.142;24.826;2022-10-22T16:49:26;30.73;;;14.70;;
58308;SDS011;44117;57.142;24.826;2022-10-22T16:51:53;35.05;;;16.80;;
58308;SDS011;44117;57.142;24.826;2022-10-22T16:54:20;29.15;;;14.68;;
58308;SDS011;44117;57.142;24.826;2022-10-22T16:56:47;27.17;;;13.82;;
58308;SDS011;44117;57.142;24.826;2022-10-22T16:59:15;28.73;;;15.25;;
58308;SDS011;44117;57.142;24.826;2022-10-22T17:01:42;34.45;;;17.27;;
58308;SDS011;44117;57.142;24.826;2022-10-22T17:04:09;39.25;;;21.63;;
58308;SDS011;44117;57.142;24.826;2022-10-22T17:06:36;33.35;;;17.73;;
58308;SDS011;44117;57.142;24.826;2022-10-22T17:09:04;27.15;;;15.02;;
58308;SDS011;44117;57.142;24.826;2022-10-22T17:11:31;28.00;;;13.70;;